Terminal Aerodrome Forecast
Issued by NWS

Home | Current Version | Previous Version | Text Only | Print | Product List | Glossary On
Versions: 1 2 3 4 5 6 7 8 9 10 11 12 13 14 15 16 17 18 19 20 21 22 23 24 25 26 27 28 29 30 31 32 33 34 35 36 37 38 39 40 41 42 43 44 45 46 47 48 49 50
530
FTUS44 KLIX 201416 AAA
TAFHDC
TAF AMD
KHDC 201416Z 2014/2112 13005KT 3SM BR OVC003
     FM201500 12004KT P6SM BKN010
     FM201800 13006KT P6SM SCT025
     FM210100 14005KT 5SM -SHRA SCT005 BKN030
     FM210500 12005KT 3SM TSRA SCT003 OVC030CB
      TEMPO 2107/2111 3/4SM TSRA OVC003CB=

USA.gov is the U.S. government's official web portal to all federal, state and local government web resources and services.